createdAt,value
2018-05-24T00:00:38.933Z,15.90
2018-05-24T00:03:06.537Z,15.80
2018-05-24T00:05:34.113Z,15.80
2018-05-24T00:08:01.723Z,15.80
2018-05-24T00:10:29.306Z,15.70
2018-05-24T00:12:56.912Z,15.70
2018-05-24T00:15:25.249Z,15.60
2018-05-24T00:17:52.867Z,15.60
2018-05-24T00:20:20.439Z,15.50
2018-05-24T00:22:48.013Z,15.50
2018-05-24T00:25:15.628Z,15.50
2018-05-24T00:27:43.977Z,15.40
2018-05-24T00:30:11.553Z,15.40
2018-05-24T00:32:39.165Z,15.40
2018-05-24T00:35:06.766Z,15.40
2018-05-24T00:37:34.341Z,15.40
2018-05-24T00:40:01.953Z,15.40
2018-05-24T00:42:29.529Z,15.40
2018-05-24T00:44:57.136Z,15.30
2018-05-24T00:47:24.749Z,15.30
2018-05-24T00:49:52.373Z,15.20
2018-05-24T00:52:19.947Z,15.20
2018-05-24T00:54:47.579Z,15.10
2018-05-24T00:57:15.164Z,15.00
2018-05-24T00:59:42.736Z,15.00
2018-05-24T01:02:10.347Z,14.90
2018-05-24T01:04:37.957Z,14.90
2018-05-24T01:07:05.573Z,14.80
2018-05-24T01:09:33.348Z,14.70
2018-05-24T01:12:00.956Z,14.70
2018-05-24T01:14:28.527Z,14.70
2018-05-24T01:16:56.145Z,14.60
2018-05-24T01:19:23.747Z,14.60
2018-05-24T01:21:51.317Z,14.50
2018-05-24T01:24:18.927Z,14.50
2018-05-24T01:26:46.508Z,14.50
2018-05-24T01:29:14.085Z,14.40
2018-05-24T01:31:41.705Z,14.40
2018-05-24T01:34:10.046Z,14.40
2018-05-24T01:36:49.360Z,14.40
2018-05-24T01:39:16.931Z,14.40
2018-05-24T01:41:44.554Z,14.40
2018-05-24T01:44:12.129Z,14.40
2018-05-24T01:46:39.754Z,14.30
2018-05-24T01:49:07.335Z,14.30
2018-05-24T01:51:34.921Z,14.20
2018-05-24T01:54:02.539Z,14.30
2018-05-24T01:56:30.112Z,14.30
2018-05-24T01:58:58.488Z,14.30
2018-05-24T02:01:26.865Z,14.30
2018-05-24T02:03:55.245Z,14.20
2018-05-24T02:06:23.629Z,14.20
2018-05-24T02:08:52.036Z,14.20
2018-05-24T02:11:19.605Z,14.20
2018-05-24T02:13:47.216Z,14.20
2018-05-24T02:16:14.791Z,14.30
2018-05-24T02:18:42.436Z,14.30
2018-05-24T02:21:10.053Z,14.30
2018-05-24T02:23:37.661Z,14.30
2018-05-24T02:26:05.241Z,14.30
2018-05-24T02:28:32.913Z,14.30
2018-05-24T02:31:01.244Z,14.20
2018-05-24T02:33:28.819Z,14.20
2018-05-24T02:35:56.483Z,14.20
2018-05-24T02:38:24.043Z,14.10
2018-05-24T02:40:51.651Z,14.10
2018-05-24T02:43:19.276Z,14.10
2018-05-24T02:45:46.885Z,14.00
2018-05-24T02:48:14.458Z,14.00
2018-05-24T02:50:42.061Z,14.00
2018-05-24T02:53:09.636Z,13.90
2018-05-24T02:55:38.009Z,13.90
2018-05-24T02:58:06.351Z,13.90
2018-05-24T03:00:33.961Z,13.80
2018-05-24T03:03:01.540Z,13.80
2018-05-24T03:05:29.146Z,13.80
2018-05-24T03:07:56.886Z,13.80
2018-05-24T03:10:24.502Z,13.80
2018-05-24T03:12:52.129Z,13.90
2018-05-24T03:15:19.713Z,13.90
2018-05-24T03:17:47.281Z,13.90
2018-05-24T03:20:15.671Z,13.90
2018-05-24T03:22:44.003Z,13.80
2018-05-24T03:25:11.618Z,13.80
2018-05-24T03:27:39.286Z,13.80
2018-05-24T03:30:06.971Z,13.80
2018-05-24T03:32:34.552Z,13.80
2018-05-24T03:35:02.302Z,13.70
2018-05-24T03:37:29.879Z,13.60
2018-05-24T03:39:57.485Z,13.60
2018-05-24T03:42:25.869Z,13.50
2018-05-24T03:44:54.199Z,13.50
2018-05-24T03:47:21.805Z,13.50
2018-05-24T03:49:49.413Z,13.50
2018-05-24T03:52:16.982Z,13.50
2018-05-24T03:54:44.593Z,13.50
2018-05-24T03:57:12.163Z,13.50
2018-05-24T04:02:52.329Z,13.40
2018-05-24T04:05:20.028Z,13.50
2018-05-24T04:07:47.686Z,13.50
2018-05-24T04:10:15.263Z,13.50
2018-05-24T04:12:42.873Z,13.40
2018-05-24T04:15:10.489Z,13.50
2018-05-24T04:17:38.100Z,13.50
2018-05-24T04:20:05.677Z,13.60
2018-05-24T04:22:33.296Z,13.50
2018-05-24T04:25:00.865Z,13.60
2018-05-24T04:27:29.252Z,13.60
2018-05-24T04:29:57.592Z,13.60
2018-05-24T04:32:25.213Z,13.60
2018-05-24T04:34:52.791Z,13.60
2018-05-24T04:37:20.368Z,13.70
2018-05-24T04:39:47.987Z,13.70
2018-05-24T04:42:15.564Z,13.80
2018-05-24T04:44:43.173Z,13.80
2018-05-24T04:47:10.789Z,13.90
2018-05-24T04:49:38.427Z,13.90
2018-05-24T04:52:06.017Z,13.90
2018-05-24T04:54:33.603Z,13.90
2018-05-24T04:57:01.213Z,14.00
2018-05-24T04:59:29.554Z,14.00
2018-05-24T05:01:57.177Z,14.00
2018-05-24T05:04:24.757Z,14.00
2018-05-24T05:06:52.369Z,14.00
2018-05-24T05:09:19.983Z,14.10
2018-05-24T05:11:47.584Z,14.10
2018-05-24T05:14:15.213Z,14.10
2018-05-24T05:16:42.828Z,14.20
2018-05-24T05:19:10.439Z,14.20
2018-05-24T05:21:38.009Z,14.30
2018-05-24T05:24:05.589Z,14.30
2018-05-24T05:26:33.209Z,14.30
2018-05-24T05:29:00.834Z,14.40
2018-05-24T05:31:28.483Z,14.40
2018-05-24T05:33:56.099Z,14.50
2018-05-24T05:36:23.740Z,14.50
2018-05-24T05:38:51.368Z,14.60
2018-05-24T05:41:19.740Z,14.80
2018-05-24T05:43:47.361Z,14.70
2018-05-24T05:46:14.959Z,14.90
2018-05-24T05:48:42.538Z,15.00
2018-05-24T05:51:10.168Z,15.10
2018-05-24T05:53:37.745Z,15.20
2018-05-24T05:56:05.322Z,15.30
2018-05-24T05:58:32.962Z,15.40
2018-05-24T06:01:00.544Z,15.40
2018-05-24T06:03:28.223Z,15.60
2018-05-24T06:05:55.796Z,15.60
2018-05-24T06:08:23.459Z,15.70
2018-05-24T06:10:51.023Z,15.80
2018-05-24T06:13:18.597Z,15.90
2018-05-24T06:15:46.177Z,15.90
2018-05-24T06:18:13.784Z,16.00
2018-05-24T06:20:43.219Z,16.10
2018-05-24T06:23:10.782Z,16.20
2018-05-24T06:25:38.403Z,16.30
2018-05-24T06:28:06.012Z,16.40
2018-05-24T06:30:33.616Z,16.50
2018-05-24T06:33:01.223Z,16.50
2018-05-24T06:35:28.820Z,16.60
2018-05-24T06:37:56.455Z,16.70
2018-05-24T06:40:24.116Z,16.80
2018-05-24T06:42:51.678Z,16.90
2018-05-24T06:45:19.254Z,17.00
2018-05-24T06:47:46.857Z,17.10
2018-05-24T06:50:14.427Z,17.20
2018-05-24T06:52:42.027Z,17.30
2018-05-24T06:55:09.626Z,17.40
2018-05-24T06:57:37.964Z,17.50
2018-05-24T07:00:05.574Z,17.50
2018-05-24T07:02:33.146Z,17.60
2018-05-24T07:05:00.758Z,17.60
2018-05-24T07:07:28.322Z,17.70
2018-05-24T07:09:55.969Z,17.90
2018-05-24T07:12:23.542Z,17.90
2018-05-24T07:14:51.152Z,18.00
2018-05-24T07:17:18.773Z,18.10
2018-05-24T07:19:46.389Z,18.20
2018-05-24T07:22:13.963Z,18.30
2018-05-24T07:24:41.603Z,18.40
2018-05-24T07:27:09.175Z,18.40
2018-05-24T07:29:36.793Z,18.50
2018-05-24T07:32:04.411Z,18.60
2018-05-24T07:34:31.995Z,18.80
2018-05-24T07:36:59.620Z,18.80
2018-05-24T07:39:27.338Z,18.80
2018-05-24T07:41:54.939Z,18.90
2018-05-24T07:44:22.554Z,19.00
2018-05-24T07:46:50.141Z,19.10
2018-05-24T07:49:17.755Z,19.10
2018-05-24T07:51:45.360Z,19.20
2018-05-24T07:54:12.965Z,19.30
2018-05-24T07:56:40.608Z,19.40
2018-05-24T07:59:08.232Z,19.50
2018-05-24T08:01:35.960Z,19.50
2018-05-24T08:04:03.444Z,19.60
2018-05-24T08:06:31.053Z,19.70
2018-05-24T08:08:58.669Z,19.80
2018-05-24T08:11:26.242Z,19.90
2018-05-24T08:13:53.858Z,20.00
2018-05-24T08:16:21.438Z,20.20
2018-05-24T08:18:49.008Z,20.30
2018-05-24T08:21:16.616Z,20.40
2018-05-24T08:23:44.199Z,20.40
2018-05-24T08:26:11.861Z,20.50
2018-05-24T08:28:39.427Z,20.50
2018-05-24T08:31:06.997Z,20.60
2018-05-24T08:33:34.653Z,20.80
2018-05-24T08:36:02.269Z,20.90
2018-05-24T08:38:29.848Z,20.90
2018-05-24T08:40:57.720Z,21.10
2018-05-24T08:43:26.044Z,21.40
2018-05-24T08:45:53.677Z,21.40
2018-05-24T08:48:21.269Z,21.50
2018-05-24T08:50:48.832Z,21.70
2018-05-24T08:53:16.539Z,21.80
2018-05-24T08:55:44.856Z,21.80
2018-05-24T08:58:12.456Z,21.80
2018-05-24T09:00:40.027Z,21.90
2018-05-24T09:03:07.636Z,22.00
2018-05-24T09:05:35.200Z,22.20
2018-05-24T09:08:02.815Z,22.30
2018-05-24T09:10:30.436Z,22.40
2018-05-24T09:12:58.005Z,22.50
2018-05-24T09:15:25.612Z,22.60
2018-05-24T09:17:53.218Z,22.60
2018-05-24T09:20:20.844Z,22.70
2018-05-24T09:22:48.422Z,22.80
2018-05-24T09:25:16.027Z,22.90
2018-05-24T09:27:43.638Z,23.10
2018-05-24T09:30:11.211Z,23.30
2018-05-24T09:32:38.818Z,23.50
2018-05-24T09:35:06.395Z,23.60
2018-05-24T09:37:34.020Z,23.50
2018-05-24T09:40:01.629Z,23.60
2018-05-24T09:42:29.267Z,23.60
2018-05-24T09:44:56.840Z,23.70
2018-05-24T09:47:24.465Z,23.80
2018-05-24T09:49:52.036Z,24.00
2018-05-24T09:52:20.375Z,24.00
2018-05-24T09:54:47.977Z,24.00
2018-05-24T09:57:15.553Z,24.10
2018-05-24T09:59:43.169Z,24.20
2018-05-24T10:02:10.740Z,24.20
2018-05-24T10:04:38.379Z,24.40
2018-05-24T10:07:05.932Z,24.40
2018-05-24T10:09:33.623Z,24.40
2018-05-24T10:12:01.246Z,24.40
2018-05-24T10:14:28.847Z,24.40
2018-05-24T10:16:56.419Z,24.40
2018-05-24T10:19:24.809Z,24.60
2018-05-24T10:21:52.380Z,24.60
2018-05-24T10:24:20.716Z,24.80
2018-05-24T10:26:48.327Z,24.70
2018-05-24T10:29:15.929Z,24.90
2018-05-24T10:31:43.556Z,25.00
2018-05-24T10:34:11.132Z,25.00
2018-05-24T10:36:38.772Z,25.10
2018-05-24T10:39:06.399Z,25.20
2018-05-24T10:41:35.631Z,25.20
2018-05-24T10:44:03.236Z,25.30
2018-05-24T10:46:30.845Z,25.50
2018-05-24T10:48:59.070Z,25.50
2018-05-24T10:51:27.388Z,25.50
2018-05-24T10:53:56.838Z,25.80
2018-05-24T10:56:24.766Z,25.70
2018-05-24T10:58:52.539Z,25.80
2018-05-24T11:01:20.694Z,25.90
2018-05-24T11:03:48.494Z,26.00
2018-05-24T11:06:16.453Z,26.20
2018-05-24T11:08:44.418Z,26.20
2018-05-24T11:11:12.266Z,26.30
2018-05-24T11:13:40.224Z,26.30
2018-05-24T11:16:08.788Z,26.40
2018-05-24T11:18:36.757Z,26.50
2018-05-24T11:21:06.787Z,26.30
2018-05-24T11:23:36.073Z,26.30
2018-05-24T11:26:05.883Z,26.30
2018-05-24T11:28:33.805Z,26.40
2018-05-24T11:31:01.581Z,26.50
2018-05-24T11:33:29.487Z,26.40
2018-05-24T11:35:57.526Z,26.40
2018-05-24T11:38:25.406Z,26.60
2018-05-24T11:40:53.159Z,26.70
2018-05-24T11:43:21.468Z,26.70
2018-05-24T11:45:49.612Z,26.80
2018-05-24T11:48:17.556Z,27.00
2018-05-24T11:50:46.135Z,27.10
2018-05-24T11:53:14.088Z,27.20
2018-05-24T11:55:42.229Z,27.20
2018-05-24T11:58:10.178Z,27.40
2018-05-24T12:00:38.135Z,27.50
2018-05-24T12:03:06.328Z,27.50
2018-05-24T12:05:34.224Z,27.60
2018-05-24T12:08:02.283Z,27.70
2018-05-24T12:10:30.259Z,27.70
2018-05-24T12:12:57.888Z,27.70
2018-05-24T12:15:25.506Z,27.70
2018-05-24T12:17:55.620Z,27.80
2018-05-24T12:20:24.739Z,27.90
2018-05-24T12:22:53.734Z,27.80
2018-05-24T12:25:21.304Z,27.80
2018-05-24T12:27:48.915Z,27.80
2018-05-24T12:30:16.475Z,27.80
2018-05-24T12:32:44.080Z,27.80
2018-05-24T12:35:11.688Z,27.70
2018-05-24T12:37:39.299Z,27.80
2018-05-24T12:40:06.900Z,27.80
2018-05-24T12:42:34.470Z,28.00
2018-05-24T12:45:02.089Z,28.20
2018-05-24T12:47:29.651Z,28.20
2018-05-24T12:49:57.248Z,28.20
2018-05-24T12:52:24.820Z,28.40
2018-05-24T12:54:52.431Z,28.50
2018-05-24T12:57:20.029Z,28.60
2018-05-24T12:59:47.628Z,28.40
2018-05-24T13:02:15.234Z,28.40
2018-05-24T13:04:43.561Z,28.60
2018-05-24T13:07:11.298Z,28.50
2018-05-24T13:09:39.101Z,28.50
2018-05-24T13:12:06.703Z,28.60
2018-05-24T13:14:34.289Z,28.70
2018-05-24T13:17:01.909Z,28.80
2018-05-24T13:19:29.519Z,28.90
2018-05-24T13:21:57.096Z,29.10
2018-05-24T13:24:24.873Z,29.00
2018-05-24T13:26:52.445Z,29.00
2018-05-24T13:29:20.056Z,29.10
2018-05-24T13:31:47.629Z,29.10
2018-05-24T13:34:15.200Z,29.00
2018-05-24T13:36:42.811Z,29.10
2018-05-24T13:39:10.379Z,29.20
2018-05-24T13:41:37.996Z,29.30
2018-05-24T13:44:05.567Z,29.50
2018-05-24T13:46:33.191Z,29.60
2018-05-24T13:49:00.757Z,29.70
2018-05-24T13:51:28.365Z,29.80
2018-05-24T13:53:55.941Z,30.00
2018-05-24T13:56:23.553Z,30.20
2018-05-24T13:58:51.126Z,30.50
2018-05-24T14:01:18.694Z,30.60
2018-05-24T14:03:46.305Z,30.50
2018-05-24T14:06:13.864Z,30.50
2018-05-24T14:08:41.481Z,30.50
2018-05-24T14:11:09.049Z,30.70
2018-05-24T14:13:36.659Z,30.70
2018-05-24T14:16:04.264Z,30.80
2018-05-24T14:18:31.825Z,30.80
2018-05-24T14:20:59.441Z,31.00
2018-05-24T14:23:26.998Z,31.10
2018-05-24T14:25:54.699Z,31.10
2018-05-24T14:28:22.270Z,31.10
2018-05-24T14:30:49.838Z,31.20
2018-05-24T14:33:17.553Z,31.30
2018-05-24T14:35:45.209Z,31.20
2018-05-24T14:38:12.844Z,31.10
2018-05-24T14:40:41.189Z,31.30
2018-05-24T14:43:08.787Z,31.30
2018-05-24T14:45:36.452Z,31.40
2018-05-24T14:48:04.836Z,31.70
2018-05-24T14:50:33.176Z,31.70
2018-05-24T14:53:00.845Z,31.60
2018-05-24T14:55:28.464Z,31.70
2018-05-24T14:57:56.033Z,31.80
2018-05-24T15:00:23.663Z,31.80
2018-05-24T15:02:52.043Z,31.60
2018-05-24T15:05:20.378Z,31.20
2018-05-24T15:07:47.947Z,31.20
2018-05-24T15:10:15.558Z,31.10
2018-05-24T15:12:43.129Z,31.00
2018-05-24T15:15:10.731Z,30.80
2018-05-24T15:17:38.312Z,31.00
2018-05-24T15:20:05.925Z,31.30
2018-05-24T15:22:33.494Z,31.50
2018-05-24T15:25:01.302Z,31.40
2018-05-24T15:27:29.684Z,31.40
2018-05-24T15:29:57.255Z,31.40
2018-05-24T15:32:25.249Z,31.60
2018-05-24T15:34:53.259Z,31.60
2018-05-24T15:37:22.023Z,31.10
2018-05-24T15:39:49.947Z,31.10
2018-05-24T15:42:19.325Z,31.20
2018-05-24T15:44:48.247Z,31.60
2018-05-24T15:47:15.875Z,31.60
2018-05-24T15:49:43.483Z,31.80
2018-05-24T15:52:11.084Z,32.10
2018-05-24T15:54:38.664Z,32.40
2018-05-24T15:57:06.281Z,32.80
2018-05-24T16:02:07.664Z,33.20
2018-05-24T16:04:35.270Z,33.30
2018-05-24T16:07:02.845Z,32.80
2018-05-24T16:09:31.220Z,31.80
2018-05-24T16:11:59.557Z,31.40
2018-05-24T16:14:27.174Z,31.30
2018-05-24T16:16:54.745Z,31.60
2018-05-24T16:19:22.317Z,31.90
2018-05-24T16:21:49.972Z,32.30
2018-05-24T16:24:17.518Z,32.50
2018-05-24T16:26:45.133Z,32.40
2018-05-24T16:29:12.696Z,32.20
2018-05-24T16:31:40.264Z,32.30
2018-05-24T16:34:07.863Z,32.30
2018-05-24T16:36:35.435Z,31.80
2018-05-24T16:39:03.035Z,31.60
2018-05-24T16:41:30.608Z,31.40
2018-05-24T16:43:58.224Z,31.50
2018-05-24T16:46:25.793Z,31.60
2018-05-24T16:48:53.360Z,31.50
2018-05-24T16:51:20.971Z,30.90
2018-05-24T16:53:48.553Z,30.30
2018-05-24T16:56:16.247Z,29.60
2018-05-24T16:58:44.418Z,29.00
2018-05-24T17:01:12.185Z,28.50
2018-05-24T17:03:39.866Z,28.30
2018-05-24T17:06:07.697Z,28.70
2018-05-24T17:08:36.045Z,29.20
2018-05-24T17:11:04.120Z,29.20
2018-05-24T17:13:32.084Z,29.00
2018-05-24T17:15:59.726Z,29.20
2018-05-24T17:18:27.294Z,29.50
2018-05-24T17:20:54.868Z,29.80
2018-05-24T17:23:23.245Z,30.20
2018-05-24T17:25:51.582Z,30.40
2018-05-24T17:28:19.200Z,30.40
2018-05-24T17:30:46.770Z,30.40
2018-05-24T17:33:14.359Z,30.40
2018-05-24T17:35:41.927Z,30.50
2018-05-24T17:38:09.528Z,30.80
2018-05-24T17:40:37.864Z,31.00
2018-05-24T17:43:05.471Z,31.00
2018-05-24T17:45:33.078Z,31.10
2018-05-24T17:48:00.647Z,31.10
2018-05-24T17:50:28.247Z,30.90
2018-05-24T17:52:55.816Z,30.70
2018-05-24T17:55:24.184Z,30.80
2018-05-24T17:57:51.790Z,30.80
2018-05-24T18:00:19.395Z,30.90
2018-05-24T18:02:47.008Z,31.10
2018-05-24T18:05:14.614Z,31.00
2018-05-24T18:07:44.260Z,30.70
2018-05-24T18:10:12.600Z,30.70
2018-05-24T18:12:40.213Z,30.70
2018-05-24T18:15:07.788Z,30.60
2018-05-24T18:17:35.356Z,30.50
2018-05-24T18:20:02.960Z,30.20
2018-05-24T18:22:30.528Z,30.20
2018-05-24T18:24:58.140Z,30.10
2018-05-24T18:27:25.709Z,30.00
2018-05-24T18:29:53.327Z,29.80
2018-05-24T18:32:20.897Z,29.50
2018-05-24T18:34:48.501Z,29.10
2018-05-24T18:37:16.140Z,28.40
2018-05-24T18:39:43.722Z,27.60
2018-05-24T18:42:11.297Z,26.80
2018-05-24T18:44:38.904Z,26.20
2018-05-24T18:47:06.471Z,25.60
2018-05-24T18:49:34.088Z,25.20
2018-05-24T18:52:01.696Z,24.80
2018-05-24T18:54:29.433Z,24.40
2018-05-24T18:56:57.007Z,24.10
2018-05-24T18:59:24.610Z,23.80
2018-05-24T19:01:52.238Z,23.60
2018-05-24T19:04:19.803Z,23.40
2018-05-24T19:06:47.408Z,23.10
2018-05-24T19:09:15.020Z,23.00
2018-05-24T19:11:42.592Z,22.80
2018-05-24T19:14:10.211Z,22.60
2018-05-24T19:16:37.811Z,22.50
2018-05-24T19:19:05.383Z,22.40
2018-05-24T19:21:32.999Z,22.30
2018-05-24T19:24:00.580Z,22.20
2018-05-24T19:26:28.197Z,22.00
2018-05-24T19:28:55.767Z,22.00
2018-05-24T19:31:23.327Z,21.90
2018-05-24T19:33:51.291Z,21.80
2018-05-24T19:36:18.856Z,21.70
2018-05-24T19:38:46.463Z,21.70
2018-05-24T19:41:14.629Z,21.60
2018-05-24T19:43:45.030Z,21.60
2018-05-24T19:46:14.599Z,21.60
2018-05-24T19:48:43.856Z,21.60
2018-05-24T19:51:11.577Z,21.50
2018-05-24T19:53:39.197Z,21.50
2018-05-24T19:56:06.772Z,21.40
2018-05-24T19:58:34.343Z,21.40
2018-05-24T20:01:01.958Z,21.40
2018-05-24T20:03:29.519Z,21.30
2018-05-24T20:05:57.899Z,21.10
2018-05-24T20:08:26.325Z,21.00
2018-05-24T20:10:53.929Z,21.10
2018-05-24T20:13:22.164Z,21.00
2018-05-24T20:15:49.780Z,21.00
2018-05-24T20:18:17.389Z,21.00
2018-05-24T20:20:44.953Z,21.00
2018-05-24T20:23:12.553Z,21.10
2018-05-24T20:25:41.631Z,21.00
2018-05-24T20:28:09.249Z,21.00
2018-05-24T20:30:36.851Z,21.00
2018-05-24T20:33:04.420Z,20.90
2018-05-24T20:35:32.042Z,20.90
2018-05-24T20:37:59.634Z,20.90
2018-05-24T20:40:27.209Z,20.80
2018-05-24T20:42:54.822Z,20.80
2018-05-24T20:45:22.391Z,20.80
2018-05-24T20:47:50.012Z,20.80
2018-05-24T20:50:17.589Z,20.80
2018-05-24T20:52:45.205Z,20.80
2018-05-24T20:55:12.805Z,20.80
2018-05-24T20:57:40.376Z,20.70
2018-05-24T21:00:07.983Z,20.70
2018-05-24T21:02:35.551Z,20.70
2018-05-24T21:05:03.152Z,20.60
2018-05-24T21:07:30.751Z,20.60
2018-05-24T21:09:58.391Z,20.60
2018-05-24T21:12:26.019Z,20.60
2018-05-24T21:14:54.393Z,20.50
2018-05-24T21:17:22.965Z,20.50
2018-05-24T21:19:50.796Z,20.50
2018-05-24T21:22:18.410Z,20.50
2018-05-24T21:24:45.980Z,20.40
2018-05-24T21:27:14.672Z,20.30
2018-05-24T21:29:42.522Z,20.30
2018-05-24T21:32:10.892Z,20.10
2018-05-24T21:34:38.460Z,20.10
2018-05-24T21:37:06.084Z,20.10
2018-05-24T21:39:34.450Z,20.00
2018-05-24T21:42:02.019Z,19.90
2018-05-24T21:44:29.622Z,19.90
2018-05-24T21:46:57.184Z,19.90
2018-05-24T21:49:25.560Z,19.80
2018-05-24T21:51:53.279Z,19.70
2018-05-24T21:54:20.884Z,19.70
2018-05-24T21:56:49.106Z,19.70
2018-05-24T21:59:17.597Z,19.70
2018-05-24T22:01:45.185Z,19.60
2018-05-24T22:04:12.839Z,19.60
2018-05-24T22:06:40.411Z,19.50
2018-05-24T22:09:08.019Z,19.50
2018-05-24T22:11:35.600Z,19.50
2018-05-24T22:14:03.215Z,19.50
2018-05-24T22:16:31.565Z,19.50
2018-05-24T22:18:59.175Z,19.50
2018-05-24T22:21:26.957Z,19.50
2018-05-24T22:23:56.006Z,19.50
2018-05-24T22:26:23.638Z,19.50
2018-05-24T22:28:51.210Z,19.50
2018-05-24T22:31:18.905Z,19.50
2018-05-24T22:33:47.397Z,19.50
2018-05-24T22:36:14.981Z,19.50
2018-05-24T22:38:42.603Z,19.40
2018-05-24T22:41:11.535Z,19.40
2018-05-24T22:43:39.161Z,19.40
2018-05-24T22:46:07.513Z,19.30
2018-05-24T22:48:35.125Z,19.30
2018-05-24T22:51:02.701Z,19.30
2018-05-24T22:53:30.314Z,19.20
2018-05-24T22:55:57.893Z,19.20
2018-05-24T22:58:25.533Z,19.20
2018-05-24T23:00:53.879Z,19.10
2018-05-24T23:03:21.489Z,19.10
2018-05-24T23:05:49.058Z,19.10
2018-05-24T23:08:17.425Z,19.10
2018-05-24T23:10:45.027Z,19.00
2018-05-24T23:13:12.598Z,19.00
2018-05-24T23:15:40.162Z,19.00
2018-05-24T23:18:07.780Z,19.00
2018-05-24T23:20:35.351Z,18.90
2018-05-24T23:23:02.951Z,18.90
2018-05-24T23:25:30.521Z,18.90
2018-05-24T23:27:58.144Z,18.90
2018-05-24T23:30:25.744Z,18.80
2018-05-24T23:32:53.364Z,18.80
2018-05-24T23:35:20.927Z,18.80
2018-05-24T23:37:48.487Z,18.80
2018-05-24T23:40:16.099Z,18.70
2018-05-24T23:42:44.474Z,18.60
2018-05-24T23:45:12.149Z,18.60
2018-05-24T23:47:39.775Z,18.50
2018-05-24T23:50:07.339Z,18.40
2018-05-24T23:52:34.945Z,18.20
2018-05-24T23:55:02.503Z,18.10
2018-05-24T23:57:30.098Z,17.90
2018-05-24T23:59:57.708Z,17.70
